Fazenda Sao Joao Airport


Codes: SDSJ/0
Name: Fazenda Sao Joao Airport
City: Orlandia
Country: Brazil
Elevation: 2172 ft.

Photos at Fazenda Sao Joao Airport


   Photos courtesy of SpottingLog. You can add your own sightings and photos by signing up for a free trial today.



No photos found.

Weather at Fazenda Sao Joao Airport


Time (UTC)DescriptionTempratureWindCloud coverageVisibilityPressureHumidity
25-Jun-2024 15:00Scattered Clouds27°C2 mph, SW26%10000m1018hPa36%
25-Jun-2024 18:00Few Clouds29°C4 mph, SW19%10000m1015hPa32%
25-Jun-2024 21:00Few Clouds24°C4 mph, S15%10000m1015hPa44%
26-Jun-2024 00:00Few Clouds23°C4 mph, E23%10000m1017hPa47%
26-Jun-2024 03:00Few Clouds20°C7 mph, SE21%10000m1017hPa63%
26-Jun-2024 06:00Few Clouds19°C4 mph, E11%10000m1016hPa68%
26-Jun-2024 09:00Clear Sky18°C4 mph, E2%10000m1017hPa62%
26-Jun-2024 12:00Clear Sky25°C7 mph, NE3%10000m1018hPa39%
26-Jun-2024 15:00Clear Sky30°C9 mph, NW0%10000m1016hPa26%
26-Jun-2024 18:00Clear Sky31°C7 mph, NW1%10000m1013hPa25%
26-Jun-2024 21:00Scattered Clouds24°C0 mph, NW37%10000m1013hPa37%
27-Jun-2024 00:00Broken Clouds22°C2 mph, NE62%10000m1014hPa40%
27-Jun-2024 03:00Scattered Clouds22°C2 mph, N45%10000m1015hPa41%
27-Jun-2024 06:00Scattered Clouds19°C2 mph, NW30%10000m1014hPa49%
27-Jun-2024 09:00Clear Sky18°C2 mph, SE5%10000m1015hPa56%
27-Jun-2024 12:00Clear Sky23°C2 mph, S7%10000m1016hPa44%
27-Jun-2024 15:00Clear Sky29°C4 mph, W3%10000m1014hPa33%
27-Jun-2024 18:00Clear Sky30°C7 mph, W5%10000m1011hPa28%
27-Jun-2024 21:00Clear Sky24°C4 mph, N7%10000m1012hPa41%
28-Jun-2024 00:00Scattered Clouds21°C0 mph, NW26%10000m1013hPa47%
28-Jun-2024 03:00Few Clouds19°C2 mph, E19%10000m1013hPa54%
28-Jun-2024 06:00Broken Clouds20°C4 mph, E60%10000m1013hPa54%
28-Jun-2024 09:00Broken Clouds18°C4 mph, E56%10000m1013hPa59%
28-Jun-2024 12:00Broken Clouds25°C7 mph, NE59%10000m1015hPa40%
28-Jun-2024 15:00Scattered Clouds32°C7 mph, NW38%10000m1013hPa22%
28-Jun-2024 18:00Broken Clouds31°C9 mph, NW69%10000m1011hPa20%
28-Jun-2024 21:00Overcast Clouds24°C2 mph, SE89%10000m1011hPa32%
29-Jun-2024 00:00Overcast Clouds23°C2 mph, NE94%10000m1013hPa34%
29-Jun-2024 03:00Overcast Clouds21°C2 mph, NE100%10000m1013hPa38%
29-Jun-2024 06:00Overcast Clouds19°C4 mph, NE100%10000m1013hPa42%
29-Jun-2024 09:00Overcast Clouds18°C2 mph, N95%10000m1014hPa45%
29-Jun-2024 12:00Broken Clouds25°C7 mph, N77%10000m1015hPa30%
29-Jun-2024 15:00Few Clouds32°C9 mph, NW18%10000m1013hPa20%
29-Jun-2024 18:00Few Clouds33°C11 mph, NW13%10000m1010hPa16%
29-Jun-2024 21:00Broken Clouds28°C4 mph, N54%10000m1011hPa23%
30-Jun-2024 00:00Broken Clouds24°C2 mph, W58%10000m1013hPa30%
30-Jun-2024 03:00Broken Clouds22°C7 mph, W73%10000m1014hPa35%
30-Jun-2024 06:00Broken Clouds20°C4 mph, SE80%10000m1015hPa61%
30-Jun-2024 09:00Few Clouds15°C4 mph, S19%10000m1016hPa89%
30-Jun-2024 12:00Few Clouds21°C7 mph, SE12%10000m1017hPa60%